sensor_id;sensor_type;location;lat;lon;timestamp;temperature;humidity
435;DHT22;204;48.942;9.256;2023-02-15T00:01:06;-0.20;1.00
435;DHT22;204;48.942;9.256;2023-02-15T00:03:32;-0.20;1.00
435;DHT22;204;48.942;9.256;2023-02-15T00:05:57;-0.10;1.00
435;DHT22;204;48.942;9.256;2023-02-15T00:08:23;-0.20;1.00
435;DHT22;204;48.942;9.256;2023-02-15T00:10:49;-0.20;1.00
435;DHT22;204;48.942;9.256;2023-02-15T00:13:14;-0.20;1.00
435;DHT22;204;48.942;9.256;2023-02-15T00:15:40;-0.20;1.00
435;DHT22;204;48.942;9.256;2023-02-15T00:18:06;-0.30;1.00
435;DHT22;204;48.942;9.256;2023-02-15T00:20:31;-0.30;1.00
435;DHT22;204;48.942;9.256;2023-02-15T00:22:58;-0.30;1.00
435;DHT22;204;48.942;9.256;2023-02-15T00:25:23;-0.30;1.00
435;DHT22;204;48.942;9.256;2023-02-15T00:27:49;-0.40;1.00
435;DHT22;204;48.942;9.256;2023-02-15T00:30:15;-0.40;1.00
435;DHT22;204;48.942;9.256;2023-02-15T00:32:40;-0.40;1.00
435;DHT22;204;48.942;9.256;2023-02-15T00:35:06;-0.40;1.00
435;DHT22;204;48.942;9.256;2023-02-15T00:37:32;-0.50;1.00
435;DHT22;204;48.942;9.256;2023-02-15T00:39:58;-0.50;1.00
435;DHT22;204;48.942;9.256;2023-02-15T00:42:23;-0.50;1.00
435;DHT22;204;48.942;9.256;2023-02-15T00:44:49;-0.60;1.00
435;DHT22;204;48.942;9.256;2023-02-15T00:47:15;-0.60;1.00
435;DHT22;204;48.942;9.256;2023-02-15T00:49:40;-0.50;1.00
435;DHT22;204;48.942;9.256;2023-02-15T00:52:06;-0.50;1.00
435;DHT22;204;48.942;9.256;2023-02-15T00:54:31;-0.50;1.00
435;DHT22;204;48.942;9.256;2023-02-15T00:56:57;-0.50;1.00
435;DHT22;204;48.942;9.256;2023-02-15T00:59:22;-0.50;1.00
435;DHT22;204;48.942;9.256;2023-02-15T01:01:48;-0.60;1.00
435;DHT22;204;48.942;9.256;2023-02-15T01:04:13;-0.60;1.00
435;DHT22;204;48.942;9.256;2023-02-15T01:06:39;-0.60;1.00
435;DHT22;204;48.942;9.256;2023-02-15T01:09:05;-0.60;1.00
435;DHT22;204;48.942;9.256;2023-02-15T01:11:30;-0.60;1.00
435;DHT22;204;48.942;9.256;2023-02-15T01:13:57;-0.50;1.00
435;DHT22;204;48.942;9.256;2023-02-15T01:16:25;-0.50;1.00
435;DHT22;204;48.942;9.256;2023-02-15T01:18:51;-0.40;1.00
435;DHT22;204;48.942;9.256;2023-02-15T01:21:19;-0.30;1.00
435;DHT22;204;48.942;9.256;2023-02-15T01:23:46;-0.30;1.00
435;DHT22;204;48.942;9.256;2023-02-15T01:26:12;-0.10;1.00
435;DHT22;204;48.942;9.256;2023-02-15T01:28:38;-0.10;1.00
435;DHT22;204;48.942;9.256;2023-02-15T01:31:10;0.00;1.00
435;DHT22;204;48.942;9.256;2023-02-15T01:33:37;0.10;1.00
435;DHT22;204;48.942;9.256;2023-02-15T01:36:03;0.20;1.00
435;DHT22;204;48.942;9.256;2023-02-15T01:38:29;0.30;1.00
435;DHT22;204;48.942;9.256;2023-02-15T01:40:55;0.30;1.00
435;DHT22;204;48.942;9.256;2023-02-15T01:43:41;0.40;1.00
435;DHT22;204;48.942;9.256;2023-02-15T01:46:08;0.50;1.00
435;DHT22;204;48.942;9.256;2023-02-15T01:48:43;0.50;1.00
435;DHT22;204;48.942;9.256;2023-02-15T01:51:10;0.50;1.00
435;DHT22;204;48.942;9.256;2023-02-15T01:53:41;0.50;1.00
435;DHT22;204;48.942;9.256;2023-02-15T01:56:19;0.60;1.00
435;DHT22;204;48.942;9.256;2023-02-15T01:58:46;0.60;1.00
435;DHT22;204;48.942;9.256;2023-02-15T02:01:13;0.60;1.00
435;DHT22;204;48.942;9.256;2023-02-15T02:06:27;0.50;1.00
435;DHT22;204;48.942;9.256;2023-02-15T02:08:53;0.40;1.00
435;DHT22;204;48.942;9.256;2023-02-15T02:11:21;0.40;1.00
435;DHT22;204;48.942;9.256;2023-02-15T02:13:47;0.40;1.00
435;DHT22;204;48.942;9.256;2023-02-15T02:16:20;0.40;1.00
435;DHT22;204;48.942;9.256;2023-02-15T02:46:25;0.40;1.00
435;DHT22;204;48.942;9.256;2023-02-15T02:48:52;0.50;1.00
435;DHT22;204;48.942;9.256;2023-02-15T02:51:19;0.50;1.00
435;DHT22;204;48.942;9.256;2023-02-15T02:53:52;0.50;1.00
435;DHT22;204;48.942;9.256;2023-02-15T02:59:16;0.60;1.00
435;DHT22;204;48.942;9.256;2023-02-15T03:02:43;0.70;1.00
435;DHT22;204;48.942;9.256;2023-02-15T03:04:49;0.70;1.00
435;DHT22;204;48.942;9.256;2023-02-15T03:07:19;0.70;1.00
435;DHT22;204;48.942;9.256;2023-02-15T03:09:50;0.80;1.00
435;DHT22;204;48.942;9.256;2023-02-15T03:12:24;0.70;1.00
435;DHT22;204;48.942;9.256;2023-02-15T03:14:54;0.70;1.00
435;DHT22;204;48.942;9.256;2023-02-15T03:17:23;0.70;1.00
435;DHT22;204;48.942;9.256;2023-02-15T03:19:52;0.70;1.00
435;DHT22;204;48.942;9.256;2023-02-15T03:22:29;0.70;1.00
435;DHT22;204;48.942;9.256;2023-02-15T03:27:43;0.70;1.00
435;DHT22;204;48.942;9.256;2023-02-15T03:30:11;0.70;1.00
435;DHT22;204;48.942;9.256;2023-02-15T03:32:38;0.70;1.00
435;DHT22;204;48.942;9.256;2023-02-15T03:35:05;0.70;1.00
435;DHT22;204;48.942;9.256;2023-02-15T03:37:48;0.70;1.00
435;DHT22;204;48.942;9.256;2023-02-15T03:40:30;0.70;1.00
435;DHT22;204;48.942;9.256;2023-02-15T03:45:58;0.70;1.00
435;DHT22;204;48.942;9.256;2023-02-15T03:48:35;0.70;1.00
435;DHT22;204;48.942;9.256;2023-02-15T03:51:05;0.70;1.00
435;DHT22;204;48.942;9.256;2023-02-15T03:53:52;0.70;1.00
435;DHT22;204;48.942;9.256;2023-02-15T03:56:18;0.70;1.00
435;DHT22;204;48.942;9.256;2023-02-15T03:58:44;0.80;1.00
435;DHT22;204;48.942;9.256;2023-02-15T04:01:38;0.70;1.00
435;DHT22;204;48.942;9.256;2023-02-15T04:06:57;0.80;1.00
435;DHT22;204;48.942;9.256;2023-02-15T04:09:22;0.80;1.00
435;DHT22;204;48.942;9.256;2023-02-15T04:12:07;0.80;1.00
435;DHT22;204;48.942;9.256;2023-02-15T04:14:32;0.80;1.00
435;DHT22;204;48.942;9.256;2023-02-15T04:17:16;0.80;1.00
435;DHT22;204;48.942;9.256;2023-02-15T04:19:42;0.70;1.00
435;DHT22;204;48.942;9.256;2023-02-15T04:22:26;0.70;1.00
435;DHT22;204;48.942;9.256;2023-02-15T04:25:10;0.60;1.00
435;DHT22;204;48.942;9.256;2023-02-15T04:27:49;0.60;1.00
435;DHT22;204;48.942;9.256;2023-02-15T04:30:16;0.50;1.00
435;DHT22;204;48.942;9.256;2023-02-15T04:32:43;0.50;1.00
435;DHT22;204;48.942;9.256;2023-02-15T04:35:09;0.50;1.00
435;DHT22;204;48.942;9.256;2023-02-15T04:37:35;0.50;1.00
435;DHT22;204;48.942;9.256;2023-02-15T04:40:01;0.50;1.00
435;DHT22;204;48.942;9.256;2023-02-15T04:42:26;0.40;1.00
435;DHT22;204;48.942;9.256;2023-02-15T04:44:53;0.40;1.00
435;DHT22;204;48.942;9.256;2023-02-15T04:47:19;0.40;1.00
435;DHT22;204;48.942;9.256;2023-02-15T04:49:44;0.40;1.00
435;DHT22;204;48.942;9.256;2023-02-15T04:52:10;0.40;1.00
435;DHT22;204;48.942;9.256;2023-02-15T04:54:36;0.50;1.00
435;DHT22;204;48.942;9.256;2023-02-15T04:57:01;0.50;1.00
435;DHT22;204;48.942;9.256;2023-02-15T04:59:27;0.50;1.00
435;DHT22;204;48.942;9.256;2023-02-15T05:01:53;0.40;1.00
435;DHT22;204;48.942;9.256;2023-02-15T05:04:18;0.50;1.00
435;DHT22;204;48.942;9.256;2023-02-15T05:06:44;0.50;1.00
435;DHT22;204;48.942;9.256;2023-02-15T05:09:11;0.50;1.00
435;DHT22;204;48.942;9.256;2023-02-15T05:11:37;0.40;1.00
435;DHT22;204;48.942;9.256;2023-02-15T05:14:02;0.40;1.00
435;DHT22;204;48.942;9.256;2023-02-15T05:16:28;0.40;1.00
435;DHT22;204;48.942;9.256;2023-02-15T05:18:54;0.40;1.00
435;DHT22;204;48.942;9.256;2023-02-15T05:21:19;0.30;1.00
435;DHT22;204;48.942;9.256;2023-02-15T05:23:45;0.30;1.00
435;DHT22;204;48.942;9.256;2023-02-15T05:26:17;0.20;1.00
435;DHT22;204;48.942;9.256;2023-02-15T05:29:02;0.20;1.00
435;DHT22;204;48.942;9.256;2023-02-15T05:31:30;0.10;1.00
435;DHT22;204;48.942;9.256;2023-02-15T05:33:56;0.10;1.00
435;DHT22;204;48.942;9.256;2023-02-15T05:36:21;0.10;1.00
435;DHT22;204;48.942;9.256;2023-02-15T05:38:47;0.10;1.00
435;DHT22;204;48.942;9.256;2023-02-15T05:41:13;0.10;1.00
435;DHT22;204;48.942;9.256;2023-02-15T05:43:39;0.10;1.00
435;DHT22;204;48.942;9.256;2023-02-15T05:46:05;0.10;1.00
435;DHT22;204;48.942;9.256;2023-02-15T05:48:31;0.20;1.00
435;DHT22;204;48.942;9.256;2023-02-15T05:53:31;0.20;1.00
435;DHT22;204;48.942;9.256;2023-02-15T05:55:57;0.20;1.00
435;DHT22;204;48.942;9.256;2023-02-15T05:58:26;0.20;1.00
435;DHT22;204;48.942;9.256;2023-02-15T06:00:52;0.10;1.00
435;DHT22;204;48.942;9.256;2023-02-15T06:03:18;0.10;1.00
435;DHT22;204;48.942;9.256;2023-02-15T06:05:44;0.10;1.00
435;DHT22;204;48.942;9.256;2023-02-15T06:08:09;0.10;1.00
435;DHT22;204;48.942;9.256;2023-02-15T06:10:35;0.10;1.00
435;DHT22;204;48.942;9.256;2023-02-15T06:13:04;0.10;1.00
435;DHT22;204;48.942;9.256;2023-02-15T06:15:29;0.00;1.00
435;DHT22;204;48.942;9.256;2023-02-15T06:17:55;0.00;1.00
435;DHT22;204;48.942;9.256;2023-02-15T06:20:20;-0.10;1.00
435;DHT22;204;48.942;9.256;2023-02-15T06:22:46;-0.10;1.00
435;DHT22;204;48.942;9.256;2023-02-15T06:25:11;-0.20;1.00
435;DHT22;204;48.942;9.256;2023-02-15T06:27:38;-0.20;1.00
435;DHT22;204;48.942;9.256;2023-02-15T06:30:06;-0.20;1.00
435;DHT22;204;48.942;9.256;2023-02-15T06:32:32;-0.20;1.00
435;DHT22;204;48.942;9.256;2023-02-15T06:34:57;-0.30;1.00
435;DHT22;204;48.942;9.256;2023-02-15T06:37:23;-0.20;1.00
435;DHT22;204;48.942;9.256;2023-02-15T06:39:48;-0.20;1.00
435;DHT22;204;48.942;9.256;2023-02-15T06:42:14;-0.10;1.00
435;DHT22;204;48.942;9.256;2023-02-15T06:44:39;-0.10;1.00
435;DHT22;204;48.942;9.256;2023-02-15T06:47:05;-0.10;1.00
435;DHT22;204;48.942;9.256;2023-02-15T06:49:31;-0.10;1.00
435;DHT22;204;48.942;9.256;2023-02-15T06:51:56;0.00;1.00
435;DHT22;204;48.942;9.256;2023-02-15T06:54:22;0.00;1.00
435;DHT22;204;48.942;9.256;2023-02-15T06:56:47;0.10;1.00
435;DHT22;204;48.942;9.256;2023-02-15T06:59:13;0.10;1.00
435;DHT22;204;48.942;9.256;2023-02-15T07:01:39;0.10;1.00
435;DHT22;204;48.942;9.256;2023-02-15T07:04:04;0.10;1.00
435;DHT22;204;48.942;9.256;2023-02-15T07:06:33;0.10;1.00
435;DHT22;204;48.942;9.256;2023-02-15T07:08:59;0.10;1.00
435;DHT22;204;48.942;9.256;2023-02-15T07:11:25;0.20;1.00
435;DHT22;204;48.942;9.256;2023-02-15T07:14:09;0.20;1.00
435;DHT22;204;48.942;9.256;2023-02-15T07:16:35;0.20;1.00
435;DHT22;204;48.942;9.256;2023-02-15T07:19:00;0.30;1.00
435;DHT22;204;48.942;9.256;2023-02-15T07:21:26;0.40;1.00
435;DHT22;204;48.942;9.256;2023-02-15T07:23:51;0.50;1.00
435;DHT22;204;48.942;9.256;2023-02-15T07:26:17;0.50;1.00
435;DHT22;204;48.942;9.256;2023-02-15T07:28:43;0.50;1.00
435;DHT22;204;48.942;9.256;2023-02-15T07:31:09;0.50;1.00
435;DHT22;204;48.942;9.256;2023-02-15T07:33:35;0.60;1.00
435;DHT22;204;48.942;9.256;2023-02-15T07:36:02;0.60;1.00
435;DHT22;204;48.942;9.256;2023-02-15T07:38:34;0.60;1.00
435;DHT22;204;48.942;9.256;2023-02-15T07:41:02;0.60;1.00
435;DHT22;204;48.942;9.256;2023-02-15T07:43:29;0.60;1.00
435;DHT22;204;48.942;9.256;2023-02-15T07:46:05;0.60;1.00
435;DHT22;204;48.942;9.256;2023-02-15T07:48:33;0.60;1.00
435;DHT22;204;48.942;9.256;2023-02-15T07:50:59;0.70;1.00
435;DHT22;204;48.942;9.256;2023-02-15T07:53:25;0.80;1.00
435;DHT22;204;48.942;9.256;2023-02-15T07:55:51;0.90;1.00
435;DHT22;204;48.942;9.256;2023-02-15T07:58:17;0.90;1.00
435;DHT22;204;48.942;9.256;2023-02-15T08:00:43;1.00;1.00
435;DHT22;204;48.942;9.256;2023-02-15T08:03:27;1.00;1.00
435;DHT22;204;48.942;9.256;2023-02-15T08:05:58;1.00;1.00
435;DHT22;204;48.942;9.256;2023-02-15T08:08:25;1.00;1.00
435;DHT22;204;48.942;9.256;2023-02-15T08:11:02;1.00;1.00
435;DHT22;204;48.942;9.256;2023-02-15T08:13:48;1.10;1.00
435;DHT22;204;48.942;9.256;2023-02-15T08:16:32;1.00;1.00
435;DHT22;204;48.942;9.256;2023-02-15T08:19:00;1.10;1.00
435;DHT22;204;48.942;9.256;2023-02-15T08:21:27;1.20;1.00
435;DHT22;204;48.942;9.256;2023-02-15T08:23:53;1.30;1.00
435;DHT22;204;48.942;9.256;2023-02-15T08:26:19;1.30;1.00
435;DHT22;204;48.942;9.256;2023-02-15T08:28:45;1.20;1.00
435;DHT22;204;48.942;9.256;2023-02-15T08:31:13;1.30;1.00
435;DHT22;204;48.942;9.256;2023-02-15T08:33:40;1.20;1.00
435;DHT22;204;48.942;9.256;2023-02-15T08:36:08;1.30;1.00
435;DHT22;204;48.942;9.256;2023-02-15T08:38:34;1.30;1.00
435;DHT22;204;48.942;9.256;2023-02-15T08:41:20;1.50;1.00
435;DHT22;204;48.942;9.256;2023-02-15T08:43:48;1.70;1.00
435;DHT22;204;48.942;9.256;2023-02-15T08:46:15;1.80;1.00
435;DHT22;204;48.942;9.256;2023-02-15T08:48:41;2.00;1.00
435;DHT22;204;48.942;9.256;2023-02-15T08:51:12;2.20;1.00
435;DHT22;204;48.942;9.256;2023-02-15T08:53:39;2.30;1.00
435;DHT22;204;48.942;9.256;2023-02-15T08:56:06;2.40;1.00
435;DHT22;204;48.942;9.256;2023-02-15T08:58:33;2.40;1.00
435;DHT22;204;48.942;9.256;2023-02-15T09:00:59;2.50;1.00
435;DHT22;204;48.942;9.256;2023-02-15T09:03:25;2.60;1.00
435;DHT22;204;48.942;9.256;2023-02-15T09:05:53;2.70;1.00
435;DHT22;204;48.942;9.256;2023-02-15T09:08:21;2.70;1.00
435;DHT22;204;48.942;9.256;2023-02-15T09:10:47;2.50;1.00
435;DHT22;204;48.942;9.256;2023-02-15T09:13:12;2.60;1.00
435;DHT22;204;48.942;9.256;2023-02-15T09:15:38;2.60;1.00
435;DHT22;204;48.942;9.256;2023-02-15T09:18:04;2.70;1.00
435;DHT22;204;48.942;9.256;2023-02-15T09:20:32;2.70;1.00
435;DHT22;204;48.942;9.256;2023-02-15T09:23:00;2.90;1.00
435;DHT22;204;48.942;9.256;2023-02-15T09:25:26;3.00;1.00
435;DHT22;204;48.942;9.256;2023-02-15T09:27:52;3.20;1.00
435;DHT22;204;48.942;9.256;2023-02-15T09:30:18;3.40;1.00
435;DHT22;204;48.942;9.256;2023-02-15T09:32:43;3.50;1.00
435;DHT22;204;48.942;9.256;2023-02-15T09:35:11;3.60;1.00
435;DHT22;204;48.942;9.256;2023-02-15T09:37:37;3.80;1.00
435;DHT22;204;48.942;9.256;2023-02-15T09:40:04;3.90;1.00
435;DHT22;204;48.942;9.256;2023-02-15T09:50:33;4.50;1.00
435;DHT22;204;48.942;9.256;2023-02-15T10:04:40;5.20;1.00
435;DHT22;204;48.942;9.256;2023-02-15T10:10:05;5.10;1.00
435;DHT22;204;48.942;9.256;2023-02-15T10:26:22;5.40;1.00
435;DHT22;204;48.942;9.256;2023-02-15T10:31:28;5.70;1.00
435;DHT22;204;48.942;9.256;2023-02-15T10:42:06;5.70;1.00
435;DHT22;204;48.942;9.256;2023-02-15T10:55:45;6.00;1.00
435;DHT22;204;48.942;9.256;2023-02-15T10:58:33;6.10;1.00
435;DHT22;204;48.942;9.256;2023-02-15T11:01:30;6.10;1.00
435;DHT22;204;48.942;9.256;2023-02-15T11:06:58;6.10;1.00
435;DHT22;204;48.942;9.256;2023-02-15T11:09:32;6.00;1.00
435;DHT22;204;48.942;9.256;2023-02-15T11:11:59;5.80;1.00
435;DHT22;204;48.942;9.256;2023-02-15T11:14:46;5.70;1.00
435;DHT22;204;48.942;9.256;2023-02-15T11:17:18;5.70;1.00
435;DHT22;204;48.942;9.256;2023-02-15T11:20:08;5.80;1.00
435;DHT22;204;48.942;9.256;2023-02-15T11:22:40;5.90;1.00
435;DHT22;204;48.942;9.256;2023-02-15T11:25:20;6.10;1.00
435;DHT22;204;48.942;9.256;2023-02-15T11:27:48;6.30;1.00
435;DHT22;204;48.942;9.256;2023-02-15T11:30:22;6.50;1.00
435;DHT22;204;48.942;9.256;2023-02-15T11:32:52;6.60;1.00
435;DHT22;204;48.942;9.256;2023-02-15T11:35:30;6.70;1.00
435;DHT22;204;48.942;9.256;2023-02-15T11:38:22;6.60;1.00
435;DHT22;204;48.942;9.256;2023-02-15T11:41:08;6.50;1.00
435;DHT22;204;48.942;9.256;2023-02-15T11:43:48;6.40;1.00
435;DHT22;204;48.942;9.256;2023-02-15T11:46:16;6.30;1.00
435;DHT22;204;48.942;9.256;2023-02-15T11:48:44;6.10;1.00
435;DHT22;204;48.942;9.256;2023-02-15T11:51:13;5.80;1.00
435;DHT22;204;48.942;9.256;2023-02-15T11:53:41;5.60;1.00
435;DHT22;204;48.942;9.256;2023-02-15T11:56:20;5.40;1.00
435;DHT22;204;48.942;9.256;2023-02-15T11:59:00;5.30;1.00
435;DHT22;204;48.942;9.256;2023-02-15T12:01:40;5.10;1.00
435;DHT22;204;48.942;9.256;2023-02-15T12:06:54;5.00;1.00
435;DHT22;204;48.942;9.256;2023-02-15T12:12:33;5.00;1.00
435;DHT22;204;48.942;9.256;2023-02-15T12:15:01;5.10;1.00
435;DHT22;204;48.942;9.256;2023-02-15T12:17:32;5.10;1.00
435;DHT22;204;48.942;9.256;2023-02-15T12:20:06;5.10;1.00
435;DHT22;204;48.942;9.256;2023-02-15T12:22:34;5.20;1.00
435;DHT22;204;48.942;9.256;2023-02-15T12:25:29;5.20;1.00
435;DHT22;204;48.942;9.256;2023-02-15T12:27:58;5.30;1.00
435;DHT22;204;48.942;9.256;2023-02-15T12:30:31;5.40;1.00
435;DHT22;204;48.942;9.256;2023-02-15T12:35:34;5.50;1.00
435;DHT22;204;48.942;9.256;2023-02-15T12:38:19;5.70;1.00
435;DHT22;204;48.942;9.256;2023-02-15T12:43:27;5.90;1.00
435;DHT22;204;48.942;9.256;2023-02-15T12:48:39;6.00;1.00
435;DHT22;204;48.942;9.256;2023-02-15T12:51:14;6.10;1.00
435;DHT22;204;48.942;9.256;2023-02-15T12:53:40;5.90;1.00
435;DHT22;204;48.942;9.256;2023-02-15T12:56:10;5.80;1.00
435;DHT22;204;48.942;9.256;2023-02-15T12:58:37;5.70;1.00
435;DHT22;204;48.942;9.256;2023-02-15T13:03:36;5.70;1.00
435;DHT22;204;48.942;9.256;2023-02-15T13:06:03;5.80;1.00
435;DHT22;204;48.942;9.256;2023-02-15T13:08:37;5.80;1.00
435;DHT22;204;48.942;9.256;2023-02-15T13:11:11;5.70;1.00
435;DHT22;204;48.942;9.256;2023-02-15T13:14:03;5.80;1.00
435;DHT22;204;48.942;9.256;2023-02-15T13:16:36;5.90;1.00
435;DHT22;204;48.942;9.256;2023-02-15T13:19:12;5.90;1.00
435;DHT22;204;48.942;9.256;2023-02-15T13:21:44;5.90;1.00
435;DHT22;204;48.942;9.256;2023-02-15T13:24:23;6.10;1.00
435;DHT22;204;48.942;9.256;2023-02-15T13:26:49;6.20;1.00
435;DHT22;204;48.942;9.256;2023-02-15T13:29:26;6.20;1.00
435;DHT22;204;48.942;9.256;2023-02-15T13:31:54;6.20;1.00
435;DHT22;204;48.942;9.256;2023-02-15T13:42:46;6.40;1.00
435;DHT22;204;48.942;9.256;2023-02-15T13:47:43;6.60;1.00
435;DHT22;204;48.942;9.256;2023-02-15T14:09:32;6.90;1.00
435;DHT22;204;48.942;9.256;2023-02-15T14:14:47;7.00;1.00
435;DHT22;204;48.942;9.256;2023-02-15T14:31:11;7.30;1.00
435;DHT22;204;48.942;9.256;2023-02-15T14:33:40;7.40;1.00
435;DHT22;204;48.942;9.256;2023-02-15T14:36:11;7.60;1.00
435;DHT22;204;48.942;9.256;2023-02-15T14:39:16;7.60;1.00
435;DHT22;204;48.942;9.256;2023-02-15T14:42:11;7.60;1.00
435;DHT22;204;48.942;9.256;2023-02-15T14:44:57;7.60;1.00
435;DHT22;204;48.942;9.256;2023-02-15T14:47:31;7.70;1.00
435;DHT22;204;48.942;9.256;2023-02-15T14:49:59;7.70;1.00
435;DHT22;204;48.942;9.256;2023-02-15T14:52:24;7.70;1.00
435;DHT22;204;48.942;9.256;2023-02-15T14:54:52;7.70;1.00
435;DHT22;204;48.942;9.256;2023-02-15T15:02:13;7.60;1.00
435;DHT22;204;48.942;9.256;2023-02-15T15:04:52;7.60;1.00
435;DHT22;204;48.942;9.256;2023-02-15T15:07:22;7.60;1.00
435;DHT22;204;48.942;9.256;2023-02-15T15:12:46;7.60;1.00
435;DHT22;204;48.942;9.256;2023-02-15T15:20:47;7.70;1.00
435;DHT22;204;48.942;9.256;2023-02-15T15:31:58;7.70;1.00
435;DHT22;204;48.942;9.256;2023-02-15T15:37:30;7.70;1.00
435;DHT22;204;48.942;9.256;2023-02-15T15:48:37;7.50;1.00
435;DHT22;204;48.942;9.256;2023-02-15T15:51:26;7.50;1.00
435;DHT22;204;48.942;9.256;2023-02-15T15:53:54;7.50;1.00
435;DHT22;204;48.942;9.256;2023-02-15T15:56:24;7.60;1.00
435;DHT22;204;48.942;9.256;2023-02-15T15:58:56;7.60;1.00
435;DHT22;204;48.942;9.256;2023-02-15T16:01:28;7.70;1.00
435;DHT22;204;48.942;9.256;2023-02-15T16:03:56;7.70;1.00
435;DHT22;204;48.942;9.256;2023-02-15T16:06:29;7.70;1.00
435;DHT22;204;48.942;9.256;2023-02-15T16:08:55;7.70;1.00
435;DHT22;204;48.942;9.256;2023-02-15T16:11:25;7.60;1.00
435;DHT22;204;48.942;9.256;2023-02-15T16:13:52;7.60;1.00
435;DHT22;204;48.942;9.256;2023-02-15T16:16:25;7.50;1.00
435;DHT22;204;48.942;9.256;2023-02-15T16:18:54;7.50;1.00
435;DHT22;204;48.942;9.256;2023-02-15T16:21:26;7.40;1.00
435;DHT22;204;48.942;9.256;2023-02-15T16:29:31;7.10;1.00
435;DHT22;204;48.942;9.256;2023-02-15T16:31:59;7.00;1.00
435;DHT22;204;48.942;9.256;2023-02-15T16:34:25;7.00;1.00
435;DHT22;204;48.942;9.256;2023-02-15T16:37:18;6.90;1.00
435;DHT22;204;48.942;9.256;2023-02-15T16:39:45;6.80;1.00
435;DHT22;204;48.942;9.256;2023-02-15T16:42:15;6.70;1.00
435;DHT22;204;48.942;9.256;2023-02-15T16:44:41;6.60;1.00
435;DHT22;204;48.942;9.256;2023-02-15T16:47:17;6.60;1.00
435;DHT22;204;48.942;9.256;2023-02-15T16:49:47;6.50;1.00
435;DHT22;204;48.942;9.256;2023-02-15T16:52:22;6.40;1.00
435;DHT22;204;48.942;9.256;2023-02-15T16:55:05;6.30;1.00
435;DHT22;204;48.942;9.256;2023-02-15T16:57:38;6.20;1.00
435;DHT22;204;48.942;9.256;2023-02-15T17:00:20;6.10;1.00
435;DHT22;204;48.942;9.256;2023-02-15T17:03:06;6.00;1.00
435;DHT22;204;48.942;9.256;2023-02-15T17:05:46;5.90;1.00
435;DHT22;204;48.942;9.256;2023-02-15T17:08:41;5.80;1.00
435;DHT22;204;48.942;9.256;2023-02-15T17:11:21;5.80;1.00
435;DHT22;204;48.942;9.256;2023-02-15T17:16:36;5.60;1.00
435;DHT22;204;48.942;9.256;2023-02-15T17:19:09;5.50;1.00
435;DHT22;204;48.942;9.256;2023-02-15T17:21:47;5.40;1.00
435;DHT22;204;48.942;9.256;2023-02-15T17:27:34;5.30;1.00
435;DHT22;204;48.942;9.256;2023-02-15T17:30:15;5.10;1.00
435;DHT22;204;48.942;9.256;2023-02-15T17:33:00;5.00;1.00
435;DHT22;204;48.942;9.256;2023-02-15T17:35:28;4.90;1.00
435;DHT22;204;48.942;9.256;2023-02-15T17:38:15;4.80;1.00
435;DHT22;204;48.942;9.256;2023-02-15T17:40:42;4.80;1.00
435;DHT22;204;48.942;9.256;2023-02-15T17:43:07;4.70;1.00
435;DHT22;204;48.942;9.256;2023-02-15T17:45:42;4.70;1.00
435;DHT22;204;48.942;9.256;2023-02-15T17:48:22;4.60;1.00
435;DHT22;204;48.942;9.256;2023-02-15T17:50:48;4.60;1.00
435;DHT22;204;48.942;9.256;2023-02-15T17:53:17;4.50;1.00
435;DHT22;204;48.942;9.256;2023-02-15T17:55:46;4.40;1.00
435;DHT22;204;48.942;9.256;2023-02-15T17:58:13;4.30;1.00
435;DHT22;204;48.942;9.256;2023-02-15T18:00:48;4.30;1.00
435;DHT22;204;48.942;9.256;2023-02-15T18:06:26;4.10;1.00
435;DHT22;204;48.942;9.256;2023-02-15T18:09:12;4.10;1.00
435;DHT22;204;48.942;9.256;2023-02-15T18:11:57;4.00;1.00
435;DHT22;204;48.942;9.256;2023-02-15T18:14:23;3.90;1.00
435;DHT22;204;48.942;9.256;2023-02-15T18:16:49;3.90;1.00
435;DHT22;204;48.942;9.256;2023-02-15T18:19:16;3.80;1.00
435;DHT22;204;48.942;9.256;2023-02-15T18:21:42;3.80;1.00
435;DHT22;204;48.942;9.256;2023-02-15T18:24:34;3.70;1.00
435;DHT22;204;48.942;9.256;2023-02-15T18:27:00;3.70;1.00
435;DHT22;204;48.942;9.256;2023-02-15T18:29:25;3.60;1.00
435;DHT22;204;48.942;9.256;2023-02-15T18:31:53;3.60;1.00
435;DHT22;204;48.942;9.256;2023-02-15T18:34:24;3.60;1.00
435;DHT22;204;48.942;9.256;2023-02-15T18:36:51;3.50;1.00
435;DHT22;204;48.942;9.256;2023-02-15T18:39:22;3.40;1.00
435;DHT22;204;48.942;9.256;2023-02-15T18:41:49;3.40;1.00
435;DHT22;204;48.942;9.256;2023-02-15T18:44:14;3.30;1.00
435;DHT22;204;48.942;9.256;2023-02-15T18:46:40;3.20;1.00
435;DHT22;204;48.942;9.256;2023-02-15T18:49:05;3.20;1.00
435;DHT22;204;48.942;9.256;2023-02-15T18:51:31;3.10;1.00
435;DHT22;204;48.942;9.256;2023-02-15T18:54:00;3.10;1.00
435;DHT22;204;48.942;9.256;2023-02-15T18:56:26;3.00;1.00
435;DHT22;204;48.942;9.256;2023-02-15T18:58:52;3.00;1.00
435;DHT22;204;48.942;9.256;2023-02-15T19:01:19;2.90;1.00
435;DHT22;204;48.942;9.256;2023-02-15T19:03:47;2.90;1.00
435;DHT22;204;48.942;9.256;2023-02-15T19:06:15;2.80;1.00
435;DHT22;204;48.942;9.256;2023-02-15T19:08:43;2.80;1.00
435;DHT22;204;48.942;9.256;2023-02-15T19:11:21;2.80;1.00
435;DHT22;204;48.942;9.256;2023-02-15T19:13:49;2.80;1.00
435;DHT22;204;48.942;9.256;2023-02-15T19:16:34;2.80;1.00
435;DHT22;204;48.942;9.256;2023-02-15T19:19:00;2.70;1.00
435;DHT22;204;48.942;9.256;2023-02-15T19:21:29;2.70;1.00
435;DHT22;204;48.942;9.256;2023-02-15T19:24:07;2.70;1.00
435;DHT22;204;48.942;9.256;2023-02-15T19:26:37;2.70;1.00
435;DHT22;204;48.942;9.256;2023-02-15T19:29:04;2.60;1.00
435;DHT22;204;48.942;9.256;2023-02-15T19:31:30;2.60;1.00
435;DHT22;204;48.942;9.256;2023-02-15T19:33:55;2.50;1.00
435;DHT22;204;48.942;9.256;2023-02-15T19:36:21;2.60;1.00
435;DHT22;204;48.942;9.256;2023-02-15T19:38:49;2.50;1.00
435;DHT22;204;48.942;9.256;2023-02-15T19:41:26;2.50;1.00
435;DHT22;204;48.942;9.256;2023-02-15T19:43:52;2.50;1.00
435;DHT22;204;48.942;9.256;2023-02-15T19:46:20;2.50;1.00
435;DHT22;204;48.942;9.256;2023-02-15T19:48:50;2.40;1.00
435;DHT22;204;48.942;9.256;2023-02-15T19:51:17;2.30;1.00
435;DHT22;204;48.942;9.256;2023-02-15T19:53:45;2.30;1.00
435;DHT22;204;48.942;9.256;2023-02-15T19:56:21;2.30;1.00
435;DHT22;204;48.942;9.256;2023-02-15T19:58:51;2.30;1.00
435;DHT22;204;48.942;9.256;2023-02-15T20:01:19;2.20;1.00
435;DHT22;204;48.942;9.256;2023-02-15T20:03:46;2.20;1.00
435;DHT22;204;48.942;9.256;2023-02-15T20:06:15;2.20;1.00
435;DHT22;204;48.942;9.256;2023-02-15T20:08:41;2.10;1.00
435;DHT22;204;48.942;9.256;2023-02-15T20:11:09;2.10;1.00
435;DHT22;204;48.942;9.256;2023-02-15T20:13:35;2.10;1.00
435;DHT22;204;48.942;9.256;2023-02-15T20:16:00;2.10;1.00
435;DHT22;204;48.942;9.256;2023-02-15T20:18:29;2.10;1.00
435;DHT22;204;48.942;9.256;2023-02-15T20:20:55;2.10;1.00
435;DHT22;204;48.942;9.256;2023-02-15T20:23:30;2.00;1.00
435;DHT22;204;48.942;9.256;2023-02-15T20:25:58;2.00;1.00
435;DHT22;204;48.942;9.256;2023-02-15T20:28:25;2.00;1.00
435;DHT22;204;48.942;9.256;2023-02-15T20:30:51;2.00;1.00
435;DHT22;204;48.942;9.256;2023-02-15T20:33:18;1.90;1.00
435;DHT22;204;48.942;9.256;2023-02-15T20:35:44;1.90;1.00
435;DHT22;204;48.942;9.256;2023-02-15T20:38:17;1.80;1.00
435;DHT22;204;48.942;9.256;2023-02-15T20:40:44;1.80;1.00
435;DHT22;204;48.942;9.256;2023-02-15T20:43:29;1.80;1.00
435;DHT22;204;48.942;9.256;2023-02-15T20:45:55;1.80;1.00
435;DHT22;204;48.942;9.256;2023-02-15T20:48:21;1.70;1.00
435;DHT22;204;48.942;9.256;2023-02-15T20:50:46;1.70;1.00
435;DHT22;204;48.942;9.256;2023-02-15T20:53:12;1.70;1.00
435;DHT22;204;48.942;9.256;2023-02-15T20:55:38;1.70;1.00
435;DHT22;204;48.942;9.256;2023-02-15T20:58:24;1.70;1.00
435;DHT22;204;48.942;9.256;2023-02-15T21:00:50;1.70;1.00
435;DHT22;204;48.942;9.256;2023-02-15T21:03:19;1.70;1.00